Time;durP1;ratioP1;P1;durP2;ratioP2;P2;SDS_P1;SDS_P2;PMS_P1;PMS_P2;Temp;Humidity;BMP_temperature;BMP_pressure;BME280_temperature;BME280_humidity;BME280_pressure;Samples;Min_cycle;Max_cycle;Signal;HPM_P1;HPM_P2
2022/12/19 00:00:26;;;;;;;0.20;0.20;;;;;;;-4.65;100.00;97210.25;4945206;28;20081;-72
2022/12/19 00:03:12;;;;;;;0.20;0.20;;;;;;;-4.54;100.00;97207.50;4962629;28;20054;-72
2022/12/19 00:06:02;;;;;;;0.20;0.20;;;;;;;-4.50;100.00;97203.66;4960700;28;20959;-73
2022/12/19 00:08:50;;;;;;;0.10;0.10;;;;;;;-4.53;100.00;97198.69;4974760;28;20671;-73
2022/12/19 00:11:37;;;;;;;0.20;0.20;;;;;;;-4.54;100.00;97197.88;4964024;28;20435;-73
2022/12/19 00:14:23;;;;;;;0.10;0.10;;;;;;;-4.49;100.00;97200.91;4962973;28;20046;-72
2022/12/19 00:17:09;;;;;;;0.20;0.20;;;;;;;-4.51;100.00;97209.84;4962728;28;20043;-72
2022/12/19 00:19:55;;;;;;;0.20;0.20;;;;;;;-4.61;100.00;97201.16;4965268;28;20041;-72
2022/12/19 00:22:40;;;;;;;0.20;0.20;;;;;;;-4.70;100.00;97194.97;4948483;28;20042;-72
2022/12/19 00:25:26;;;;;;;0.20;0.20;;;;;;;-4.63;100.00;97182.19;4963244;28;20042;-69
2022/12/19 00:28:12;;;;;;;0.20;0.20;;;;;;;-4.58;100.00;97180.00;4963357;28;20054;-72
2022/12/19 00:31:03;;;;;;;0.20;0.20;;;;;;;-4.52;100.00;97189.88;4955602;28;20074;-73
2022/12/19 00:33:49;;;;;;;0.17;0.17;;;;;;;-4.44;100.00;97182.19;4940305;28;20562;-73
2022/12/19 00:36:37;;;;;;;0.20;0.20;;;;;;;-4.40;100.00;97175.75;4942940;28;20522;-72
2022/12/19 00:39:26;;;;;;;0.20;0.20;;;;;;;-4.49;100.00;97179.19;4945329;28;20454;-71
2022/12/19 00:42:11;;;;;;;0.20;0.20;;;;;;;-4.34;100.00;97176.97;4942386;28;20078;-71
2022/12/19 00:44:57;;;;;;;0.10;0.10;;;;;;;-4.24;100.00;97176.00;4940997;28;20121;-72
2022/12/19 00:47:45;;;;;;;0.20;0.20;;;;;;;-4.31;100.00;97171.47;4954911;28;20190;-73
2022/12/19 00:50:31;;;;;;;0.20;0.20;;;;;;;-4.29;100.00;97175.59;4942004;28;20357;-73
2022/12/19 00:53:17;;;;;;;0.20;0.20;;;;;;;-4.21;100.00;97172.28;4941244;28;20049;-73
2022/12/19 00:56:05;;;;;;;0.20;0.20;;;;;;;-4.23;100.00;97174.22;4940579;28;20273;-72
2022/12/19 00:58:53;;;;;;;0.20;0.20;;;;;;;-4.14;100.00;97168.16;4941771;28;20045;-73
2022/12/19 01:01:40;;;;;;;0.20;0.20;;;;;;;-3.99;100.00;97171.97;4942948;28;20038;-73
2022/12/19 01:04:26;;;;;;;0.20;0.20;;;;;;;-4.12;100.00;97174.09;4943682;28;20097;-73
2022/12/19 01:07:11;;;;;;;0.20;0.20;;;;;;;-4.00;100.00;97164.28;4941290;28;20077;-72
2022/12/19 01:09:58;;;;;;;0.20;0.20;;;;;;;-4.03;100.00;97154.13;4941561;28;20625;-71
2022/12/19 01:12:46;;;;;;;0.20;0.20;;;;;;;-3.98;100.00;97155.31;4940949;28;20503;-73
2022/12/19 01:15:32;;;;;;;0.20;0.20;;;;;;;-3.84;100.00;97153.22;4942935;28;20555;-73
2022/12/19 01:18:18;;;;;;;0.20;0.20;;;;;;;-3.77;100.00;97149.91;4944719;28;20047;-73
2022/12/19 01:21:09;;;;;;;0.20;0.20;;;;;;;-3.94;100.00;97151.47;4943744;28;20237;-70
2022/12/19 01:23:55;;;;;;;0.20;0.20;;;;;;;-3.94;100.00;97153.25;4944810;28;20050;-73
2022/12/19 01:26:42;;;;;;;0.20;0.20;;;;;;;-3.99;100.00;97134.53;4944978;28;20073;-73
2022/12/19 01:29:28;;;;;;;0.20;0.20;;;;;;;-3.95;100.00;97135.94;4945199;28;20050;-74
2022/12/19 01:32:13;;;;;;;0.20;0.20;;;;;;;-3.77;100.00;97146.47;4961483;28;20054;-71
2022/12/19 01:34:59;;;;;;;0.20;0.20;;;;;;;-3.90;100.00;97130.25;4962394;28;20636;-73
2022/12/19 01:37:45;;;;;;;0.20;0.20;;;;;;;-3.99;100.00;97121.47;4963704;28;20070;-72
2022/12/19 01:40:34;;;;;;;0.20;0.20;;;;;;;-3.99;100.00;97121.47;4963014;28;20042;-69
2022/12/19 01:43:21;;;;;;;0.20;0.20;;;;;;;-4.00;100.00;97132.91;4960406;28;20498;-71
2022/12/19 01:46:13;;;;;;;0.20;0.20;;;;;;;-3.99;100.00;97139.78;4963626;28;20051;-70
2022/12/19 01:49:01;;;;;;;0.20;0.20;;;;;;;-4.05;100.00;97135.09;4977749;28;20050;-71
2022/12/19 01:51:50;;;;;;;0.20;0.20;;;;;;;-4.06;100.00;97143.91;4963825;28;20046;-73
2022/12/19 01:54:42;;;;;;;0.20;0.20;;;;;;;-4.06;100.00;97130.84;4966915;28;20045;-71
2022/12/19 01:57:28;;;;;;;0.20;0.20;;;;;;;-4.05;100.00;97142.94;4964386;28;20415;-71
2022/12/19 02:00:14;;;;;;;0.10;0.10;;;;;;;-4.00;100.00;97127.69;4963410;28;20054;-72
2022/12/19 02:03:13;;;;;;;0.20;0.20;;;;;;;-4.02;100.00;97140.91;4948823;28;20363;-73
2022/12/19 02:06:04;;;;;;;0.10;0.10;;;;;;;-3.89;100.00;97137.13;4961493;28;20172;-72
2022/12/19 02:08:51;;;;;;;0.20;0.20;;;;;;;-3.98;100.00;97129.16;4976560;28;20050;-72
2022/12/19 02:11:37;;;;;;;0.20;0.20;;;;;;;-3.97;100.00;97122.16;4964471;28;20384;-72
2022/12/19 02:14:23;;;;;;;0.20;0.20;;;;;;;-4.06;100.00;97109.94;4964511;28;20465;-72
2022/12/19 02:17:38;;;;;;;0.10;0.10;;;;;;;-3.85;100.00;97092.25;4951467;28;20247;-71
2022/12/19 02:21:01;;;;;;;0.20;0.20;;;;;;;-3.72;100.00;97087.53;4963541;28;20038;-71
2022/12/19 02:24:15;;;;;;;0.13;0.13;;;;;;;-3.76;100.00;97061.78;4976101;28;20053;-72
2022/12/19 03:00:06;;;;;;;0.20;0.20;;;;;;;-3.84;100.00;97064.31;4672217;28;20514;-72
2022/12/19 03:03:12;;;;;;;0.20;0.20;;;;;;;-3.72;100.00;97078.88;4955878;28;20050;-71
2022/12/19 03:06:04;;;;;;;0.20;0.20;;;;;;;-3.76;100.00;97078.31;4942830;28;20050;-69
2022/12/19 03:09:19;;;;;;;0.20;0.20;;;;;;;-3.80;100.00;97065.69;4942852;28;20047;-71
2022/12/19 03:12:10;;;;;;;0.17;0.17;;;;;;;-3.83;100.00;97066.78;4931586;28;20568;-72
2022/12/19 03:14:58;;;;;;;0.20;0.20;;;;;;;-3.76;100.00;97067.03;4943097;28;20054;-71
2022/12/19 03:17:45;;;;;;;0.20;0.20;;;;;;;-3.81;100.00;97059.63;4956666;28;20627;-71
2022/12/19 03:20:47;;;;;;;0.20;0.20;;;;;;;-3.86;100.00;97055.78;4944713;28;20046;-69
2022/12/19 03:23:33;;;;;;;0.20;0.20;;;;;;;-3.86;100.00;97048.78;4944235;28;20141;-71
2022/12/19 03:26:22;;;;;;;0.17;0.17;;;;;;;-3.82;100.00;97038.81;4942969;28;20053;-72
2022/12/19 03:29:20;;;;;;;0.20;0.20;;;;;;;-3.85;100.00;97047.81;4942778;28;20050;-69
2022/12/19 03:32:13;;;;;;;0.20;0.20;;;;;;;-3.79;100.00;97056.88;4955176;28;20185;-72
2022/12/19 03:35:17;;;;;;;0.20;0.20;;;;;;;-3.84;100.00;97052.06;4942767;28;20074;-70
2022/12/19 03:38:04;;;;;;;0.10;0.10;;;;;;;-3.77;100.00;97065.38;4943346;28;20042;-70
2022/12/19 03:40:52;;;;;;;0.20;0.20;;;;;;;-3.83;100.00;97051.09;4944799;28;20038;-71
2022/12/19 03:43:41;;;;;;;0.20;0.20;;;;;;;-3.86;100.00;97032.25;4946017;28;20129;-72
2022/12/19 03:46:29;;;;;;;0.20;0.20;;;;;;;-3.72;100.00;97053.53;4943700;28;20426;-73
2022/12/19 03:49:15;;;;;;;0.20;0.20;;;;;;;-3.73;100.00;97038.81;4941285;28;20114;-71
2022/12/19 03:52:26;;;;;;;0.20;0.20;;;;;;;-3.68;100.00;97043.59;4944247;28;20042;-72
2022/12/19 03:55:20;;;;;;;0.20;0.20;;;;;;;-3.66;100.00;97058.19;4941813;28;20046;-71
2022/12/19 03:58:13;;;;;;;0.10;0.10;;;;;;;-3.65;100.00;97033.66;4943493;28;20646;-69
2022/12/19 04:01:01;;;;;;;0.20;0.20;;;;;;;-3.53;100.00;97030.84;4941627;28;20498;-72
2022/12/19 04:03:47;;;;;;;0.20;0.20;;;;;;;-3.48;100.00;97044.31;4942110;28;20066;-72
2022/12/19 04:06:36;;;;;;;0.20;0.20;;;;;;;-3.47;100.00;97030.25;4944480;28;20424;-70
2022/12/19 04:09:23;;;;;;;0.17;0.17;;;;;;;-3.57;100.00;97014.63;4941422;28;20673;-72
2022/12/19 04:12:15;;;;;;;0.20;0.20;;;;;;;-3.50;100.00;97015.69;4944922;28;20043;-69
2022/12/19 04:15:01;;;;;;;0.20;0.20;;;;;;;-3.52;100.00;97012.38;4955948;28;20046;-72
2022/12/19 04:17:54;;;;;;;0.20;0.20;;;;;;;-3.46;100.00;97003.13;4945293;28;20093;-71
2022/12/19 04:20:47;;;;;;;0.20;0.20;;;;;;;-3.33;100.00;97000.16;4943015;28;20043;-71
2022/12/19 04:23:38;;;;;;;0.20;0.20;;;;;;;-3.27;100.00;97000.34;4944134;28;20058;-70
2022/12/19 04:26:26;;;;;;;0.20;0.20;;;;;;;-3.37;100.00;97002.22;4942770;28;20623;-71
2022/12/19 04:29:13;;;;;;;0.20;0.20;;;;;;;-3.29;100.00;97007.53;4942963;28;20050;-70
2022/12/19 04:32:01;;;;;;;0.20;0.20;;;;;;;-3.20;100.00;97027.59;4957430;28;20537;-71
2022/12/19 04:34:47;;;;;;;0.20;0.20;;;;;;;-3.28;100.00;97014.41;4963387;28;20663;-72
2022/12/19 04:37:33;;;;;;;0.20;0.20;;;;;;;-3.32;100.00;97025.34;4960625;28;20125;-69
2022/12/19 04:40:19;;;;;;;0.20;0.20;;;;;;;-3.31;100.00;97014.72;4960541;28;20039;-69
2022/12/19 04:43:07;;;;;;;0.20;0.20;;;;;;;-3.45;100.00;97023.91;4964892;28;20321;-70
2022/12/19 04:45:52;;;;;;;0.20;0.20;;;;;;;-3.43;100.00;97024.56;4961897;28;20043;-73
2022/12/19 04:48:38;;;;;;;0.13;0.13;;;;;;;-3.40;100.00;96984.22;4962595;28;20518;-71
2022/12/19 04:51:24;;;;;;;0.20;0.20;;;;;;;-3.33;100.00;97005.38;4963493;28;20053;-72
2022/12/19 04:54:10;;;;;;;0.10;0.10;;;;;;;-3.38;100.00;97003.19;4966507;28;20073;-70
2022/12/19 04:56:56;;;;;;;0.20;0.20;;;;;;;-3.46;100.00;96998.72;4966621;28;20034;-71
2022/12/19 04:59:42;;;;;;;0.20;0.20;;;;;;;-3.51;100.00;96990.47;4967152;28;20422;-69
2022/12/19 05:02:28;;;;;;;0.20;0.20;;;;;;;-3.46;100.00;96979.56;4966312;28;20594;-72
2022/12/19 05:05:15;;;;;;;0.20;0.20;;;;;;;-3.39;100.00;96996.31;4967792;28;20046;-72
2022/12/19 05:08:01;;;;;;;0.10;0.10;;;;;;;-3.39;100.00;97006.78;4980350;28;20046;-73
2022/12/19 05:10:47;;;;;;;0.10;0.10;;;;;;;-3.30;100.00;96998.03;4969273;28;20354;-72
2022/12/19 05:13:34;;;;;;;0.20;0.20;;;;;;;-3.36;100.00;96990.78;4965858;28;20050;-72
2022/12/19 05:16:19;;;;;;;0.20;0.20;;;;;;;-3.27;100.00;96984.66;4969986;28;20041;-72
2022/12/19 05:19:06;;;;;;;0.20;0.20;;;;;;;-3.23;100.00;96996.47;4967257;28;20462;-73
2022/12/19 05:21:51;;;;;;;0.10;0.10;;;;;;;-3.21;100.00;96991.91;4967362;28;20053;-72
2022/12/19 05:24:37;;;;;;;0.10;0.10;;;;;;;-3.11;100.00;96987.44;4967559;28;20034;-73
2022/12/19 05:27:23;;;;;;;0.20;0.20;;;;;;;-3.02;100.00;96995.38;4967074;28;20054;-72
2022/12/19 05:30:10;;;;;;;0.17;0.17;;;;;;;-3.03;100.00;96985.88;4966936;28;20121;-71
2022/12/19 05:32:55;;;;;;;0.10;0.10;;;;;;;-3.02;100.00;96990.94;4968132;28;20585;-72
2022/12/19 05:35:41;;;;;;;0.20;0.20;;;;;;;-3.02;100.00;97000.59;4965838;28;20566;-73
2022/12/19 05:38:28;;;;;;;0.20;0.20;;;;;;;-3.05;100.00;96995.66;4968251;28;20239;-73
2022/12/19 05:41:16;;;;;;;0.20;0.20;;;;;;;-2.98;100.00;97009.78;4967572;28;20403;-72
2022/12/19 05:44:02;;;;;;;0.10;0.10;;;;;;;-2.96;100.00;97010.44;4967542;28;20050;-69
2022/12/19 05:46:48;;;;;;;0.10;0.10;;;;;;;-2.93;100.00;96997.06;4967535;28;20152;-72
2022/12/19 05:49:34;;;;;;;0.10;0.10;;;;;;;-3.00;100.00;96996.84;4967605;28;20042;-73
2022/12/19 05:52:20;;;;;;;0.20;0.20;;;;;;;-2.91;100.00;97009.03;4967768;28;20328;-70
2022/12/19 05:55:08;;;;;;;0.20;0.20;;;;;;;-2.84;100.00;97017.94;4964810;28;20263;-70
2022/12/19 05:57:53;;;;;;;0.20;0.20;;;;;;;-2.91;100.00;97021.31;4966187;28;20212;-72
2022/12/19 06:00:40;;;;;;;0.20;0.20;;;;;;;-2.82;100.00;97010.75;4961247;28;20380;-73
2022/12/19 06:03:26;;;;;;;0.20;0.20;;;;;;;-2.93;100.00;97002.31;4944518;28;20042;-72
2022/12/19 06:06:21;;;;;;;0.10;0.10;;;;;;;-2.96;100.00;97011.28;4945211;28;20039;-72
2022/12/19 06:09:07;;;;;;;0.20;0.20;;;;;;;-2.88;100.00;97018.38;4946547;28;20042;-71
2022/12/19 06:11:52;;;;;;;0.20;0.20;;;;;;;-2.75;100.00;97004.91;4947016;28;20042;-72
2022/12/19 06:14:38;;;;;;;0.20;0.20;;;;;;;-2.70;100.00;97018.38;4946349;28;20047;-72
2022/12/19 06:17:24;;;;;;;0.10;0.10;;;;;;;-2.71;100.00;97009.69;4947078;28;20134;-72
2022/12/19 06:20:10;;;;;;;0.20;0.20;;;;;;;-2.65;100.00;97031.84;4950052;28;20051;-71
2022/12/19 06:22:56;;;;;;;0.20;0.20;;;;;;;-2.65;100.00;97018.72;4947789;28;20455;-71
2022/12/19 06:25:42;;;;;;;0.20;0.20;;;;;;;-2.55;100.00;97022.94;4945361;28;20785;-71
2022/12/19 06:28:29;;;;;;;0.10;0.10;;;;;;;-2.54;100.00;97021.94;4946452;28;20129;-72
2022/12/19 06:31:16;;;;;;;0.20;0.20;;;;;;;-2.47;100.00;97029.19;4957451;28;20054;-71
2022/12/19 06:34:02;;;;;;;0.20;0.20;;;;;;;-2.43;100.00;97028.72;4966734;28;20374;-71
2022/12/19 06:36:48;;;;;;;0.20;0.20;;;;;;;-2.35;100.00;97046.31;4966676;28;20498;-71
2022/12/19 06:39:34;;;;;;;0.20;0.20;;;;;;;-2.32;100.00;97040.78;4964748;28;20054;-72
2022/12/19 06:42:22;;;;;;;0.20;0.20;;;;;;;-2.34;100.00;97040.09;4967178;28;20169;-69
2022/12/19 06:45:08;;;;;;;0.20;0.20;;;;;;;-2.26;100.00;97024.41;4965014;28;20156;-70
2022/12/19 06:47:55;;;;;;;0.20;0.20;;;;;;;-2.27;100.00;97031.44;4966162;28;20049;-70
2022/12/19 06:50:40;;;;;;;0.20;0.20;;;;;;;-2.14;100.00;97014.50;4966755;28;20042;-71
2022/12/19 06:53:27;;;;;;;0.10;0.10;;;;;;;-2.15;100.00;97015.47;4965004;28;20440;-69
2022/12/19 06:56:14;;;;;;;0.20;0.20;;;;;;;-2.13;100.00;97009.09;4966812;28;20073;-70
2022/12/19 06:59:00;;;;;;;0.20;0.20;;;;;;;-2.18;100.00;96995.59;4964602;28;20616;-72
2022/12/19 07:01:53;;;;;;;0.10;0.10;;;;;;;-2.15;100.00;96999.75;4964515;28;20064;-72
2022/12/19 07:04:47;;;;;;;0.10;0.10;;;;;;;-2.17;100.00;97010.38;4977493;28;20042;-72
2022/12/19 07:07:33;;;;;;;0.10;0.10;;;;;;;-2.10;100.00;97023.69;4964880;28;20061;-70
2022/12/19 07:10:21;;;;;;;0.20;0.20;;;;;;;-2.14;100.00;97006.63;4966594;28;20605;-71
2022/12/19 07:13:07;;;;;;;0.13;0.13;;;;;;;-2.13;100.00;97009.09;4965511;28;20478;-71
2022/12/19 07:15:59;;;;;;;0.13;0.13;;;;;;;-2.08;100.00;97012.06;4964347;28;20786;-71
2022/12/19 07:18:45;;;;;;;0.20;0.20;;;;;;;-2.09;100.00;97013.06;4964885;28;20632;-73
2022/12/19 07:21:31;;;;;;;0.20;0.20;;;;;;;-2.09;100.00;97007.81;4978967;28;20518;-72
2022/12/19 07:24:17;;;;;;;0.20;0.20;;;;;;;-2.06;100.00;97025.84;4965276;28;20038;-72
2022/12/19 07:27:07;;;;;;;0.20;0.20;;;;;;;-2.07;100.00;97037.31;4967173;28;20073;-73
2022/12/19 07:29:53;;;;;;;0.20;0.20;;;;;;;-2.14;100.00;97033.66;4966653;28;20068;-73
2022/12/19 07:32:39;;;;;;;0.20;0.20;;;;;;;-2.16;100.00;97027.75;4965946;28;20466;-71
2022/12/19 07:35:25;;;;;;;0.20;0.20;;;;;;;-2.16;100.00;97017.28;4965611;28;20469;-73
2022/12/19 07:38:11;;;;;;;0.20;0.20;;;;;;;-2.12;100.00;97034.31;4965709;28;20330;-72
2022/12/19 07:41:00;;;;;;;0.20;0.20;;;;;;;-2.08;100.00;97043.53;4967994;28;20069;-71
2022/12/19 07:43:46;;;;;;;0.20;0.20;;;;;;;-2.11;100.00;97056.94;4963261;28;20068;-73
2022/12/19 07:46:32;;;;;;;0.20;0.20;;;;;;;-1.97;100.00;97037.19;4965819;28;20755;-73
2022/12/19 07:49:18;;;;;;;0.20;0.20;;;;;;;-1.89;100.00;97046.91;4965579;28;20049;-73
2022/12/19 07:52:04;;;;;;;0.10;0.10;;;;;;;-1.88;100.00;97032.81;4966866;28;20142;-73
2022/12/19 07:54:53;;;;;;;0.20;0.20;;;;;;;-1.92;100.00;97029.69;4962675;28;20100;-73
2022/12/19 07:57:39;;;;;;;0.10;0.10;;;;;;;-1.90;100.00;97021.66;4967597;28;20550;-72
2022/12/19 08:00:24;;;;;;;0.20;0.20;;;;;;;-1.88;100.00;97035.44;4964635;28;20069;-72
2022/12/19 08:03:13;;;;;;;0.20;0.20;;;;;;;-1.83;100.00;97031.38;4951040;28;20038;-74
2022/12/19 08:06:04;;;;;;;0.20;0.20;;;;;;;-1.84;100.00;97042.03;4964083;28;20096;-71
2022/12/19 08:08:50;;;;;;;0.20;0.20;;;;;;;-1.90;100.00;97040.03;4963882;28;20680;-73
2022/12/19 08:11:36;;;;;;;0.20;0.20;;;;;;;-1.86;100.00;97038.75;4952175;28;20744;-73
2022/12/19 08:14:22;;;;;;;0.20;0.20;;;;;;;-1.87;100.00;97023.97;4964057;28;20050;-71
2022/12/19 08:17:08;;;;;;;0.20;0.20;;;;;;;-1.90;100.00;97022.47;4962708;28;20690;-73
2022/12/19 08:19:54;;;;;;;0.20;0.20;;;;;;;-1.85;100.00;97033.34;4964233;28;20488;-74
2022/12/19 08:22:40;;;;;;;0.20;0.20;;;;;;;-1.75;100.00;97041.91;4966147;28;20372;-73
2022/12/19 08:25:25;;;;;;;0.10;0.10;;;;;;;-1.72;100.00;97043.38;4947935;28;20042;-71
2022/12/19 08:28:11;;;;;;;0.20;0.20;;;;;;;-1.72;100.00;97035.50;4964191;28;20295;-73
2022/12/19 08:31:04;;;;;;;0.20;0.20;;;;;;;-1.64;100.00;97051.28;4949431;28;20050;-72
2022/12/19 08:33:50;;;;;;;0.20;0.20;;;;;;;-1.66;100.00;97044.56;4964841;28;20499;-72
2022/12/19 08:36:38;;;;;;;0.20;0.20;;;;;;;-1.52;100.00;97042.16;4964236;28;20046;-71
2022/12/19 08:39:24;;;;;;;0.20;0.20;;;;;;;-1.51;100.00;97049.06;4961995;28;20047;-73
2022/12/19 08:42:10;;;;;;;0.20;0.20;;;;;;;-1.59;100.00;97038.53;4966326;28;20050;-72
2022/12/19 08:44:55;;;;;;;0.20;0.20;;;;;;;-1.52;100.00;97036.09;4963594;28;20043;-72
2022/12/19 08:47:42;;;;;;;0.20;0.20;;;;;;;-1.58;100.00;97042.78;4963237;28;20112;-73
2022/12/19 08:50:28;;;;;;;0.20;0.20;;;;;;;-1.63;100.00;97029.34;4964665;28;20058;-71
2022/12/19 08:53:14;;;;;;;0.20;0.20;;;;;;;-1.53;100.00;97030.03;4965010;28;20050;-72
2022/12/19 08:56:07;;;;;;;0.20;0.20;;;;;;;-1.46;100.00;97038.09;4962930;28;20041;-73
2022/12/19 08:58:54;;;;;;;0.20;0.20;;;;;;;-1.50;100.00;97028.88;4964800;28;20050;-74
2022/12/19 09:01:40;;;;;;;0.20;0.20;;;;;;;-1.49;100.00;97026.09;4965627;28;20431;-74
2022/12/19 09:04:27;;;;;;;0.20;0.20;;;;;;;-1.47;100.00;97018.91;4962909;28;20148;-71
2022/12/19 09:07:13;;;;;;;0.15;0.15;;;;;;;-1.38;100.00;97026.78;4932703;28;20085;-71
2022/12/19 09:09:59;;;;;;;0.20;0.20;;;;;;;-1.39;100.00;97020.72;4947259;28;20804;-70
2022/12/19 09:12:45;;;;;;;0.20;0.20;;;;;;;-1.30;100.00;97022.38;4962653;28;20073;-73
2022/12/19 09:15:31;;;;;;;0.10;0.10;;;;;;;-1.25;100.00;97020.06;4962107;28;20090;-73
2022/12/19 09:18:17;;;;;;;0.20;0.20;;;;;;;-1.23;100.00;97022.56;4964238;28;20784;-71
2022/12/19 09:21:03;;;;;;;0.10;0.10;;;;;;;-1.12;100.00;97025.69;4950534;28;20042;-73
2022/12/19 09:23:53;;;;;;;0.20;0.20;;;;;;;-1.04;100.00;97019.63;4959888;28;20065;-72
2022/12/19 09:26:40;;;;;;;0.20;0.20;;;;;;;-1.07;100.00;97032.28;4961514;28;20437;-72
2022/12/19 09:29:27;;;;;;;0.20;0.20;;;;;;;-1.14;100.00;97032.91;4961671;28;20565;-72
2022/12/19 09:32:13;;;;;;;0.10;0.10;;;;;;;-1.10;100.00;97027.34;4963779;28;20050;-71
2022/12/19 09:35:01;;;;;;;0.20;0.20;;;;;;;-1.06;100.00;97020.78;4962234;28;20549;-73
2022/12/19 09:37:47;;;;;;;0.10;0.10;;;;;;;-0.96;100.00;97022.25;4962753;28;20053;-73
2022/12/19 09:40:50;;;;;;;0.10;0.10;;;;;;;-0.91;100.00;97027.03;4967011;28;20054;-71
2022/12/19 09:44:28;;;;;;;0.20;0.20;;;;;;;-0.87;100.00;97023.91;4966645;28;20045;-71
2022/12/19 09:47:24;;;;;;;0.20;0.20;;;;;;;-0.79;100.00;97028.34;4927792;28;20167;-71
2022/12/19 09:50:28;;;;;;;0.17;0.17;;;;;;;-0.85;100.00;97021.97;4964559;28;20038;-72
2022/12/19 09:53:49;;;;;;;0.20;0.20;;;;;;;-0.69;100.00;97020.34;4967229;28;20046;-72
2022/12/19 09:56:39;;;;;;;0.20;0.20;;;;;;;-0.68;100.00;97016.72;4956084;28;20042;-73
2022/12/19 09:59:41;;;;;;;0.10;0.10;;;;;;;-0.79;100.00;97025.72;4964515;28;20065;-72
2022/12/19 10:02:45;;;;;;;0.10;0.10;;;;;;;-0.83;100.00;97010.47;4964066;28;20046;-73
2022/12/19 10:05:50;;;;;;;0.20;0.20;;;;;;;-0.67;100.00;97010.47;4964228;28;20038;-73
2022/12/19 10:08:40;;;;;;;0.20;0.20;;;;;;;-0.71;100.00;97012.59;4925698;28;20510;-70
2022/12/19 10:11:28;;;;;;;0.15;0.15;;;;;;;-0.72;100.00;97026.72;4951845;28;20054;-72
2022/12/19 10:14:30;;;;;;;0.15;0.15;;;;;;;-0.67;100.00;97018.34;4965661;28;20145;-72
2022/12/19 10:17:16;;;;;;;;;;;;;;;-0.68;100.00;97019.34;4966382;28;20541;-72
2022/12/19 10:20:02;;;;;;;0.10;0.10;;;;;;;-0.76;100.00;97012.28;4961634;28;19925;-71
2022/12/19 10:23:07;;;;;;;0.20;0.20;;;;;;;-0.73;100.00;96990.09;4962225;28;20050;-74
2022/12/19 10:26:10;;;;;;;0.20;0.20;;;;;;;-0.67;100.00;96989.44;4963423;28;20097;-73
2022/12/19 10:29:33;;;;;;;0.20;0.20;;;;;;;-0.63;100.00;96996.81;4963023;28;20121;-72
2022/12/19 10:32:35;;;;;;;0.20;0.20;;;;;;;-0.66;100.00;96991.91;4967864;28;20064;-71
2022/12/19 10:35:23;;;;;;;0.20;0.20;;;;;;;-0.69;100.00;96986.16;4965498;28;20069;-72
2022/12/19 10:38:32;;;;;;;0.13;0.13;;;;;;;-0.69;100.00;96970.38;4951744;28;20384;-73
2022/12/19 10:41:31;;;;;;;0.20;0.20;;;;;;;-0.64;100.00;96971.50;4967708;28;20236;-71
2022/12/19 10:44:18;;;;;;;0.20;0.20;;;;;;;-0.73;100.00;96962.00;4964597;28;20076;-72
2022/12/19 10:47:03;;;;;;;0.17;0.17;;;;;;;-0.73;100.00;96975.13;4963403;28;20465;-72
2022/12/19 10:49:49;;;;;;;0.20;0.20;;;;;;;-0.69;100.00;96958.06;4965032;28;20589;-73
2022/12/19 10:53:07;;;;;;;0.20;0.20;;;;;;;-0.78;100.00;96959.03;4964924;28;20050;-72
2022/12/19 10:55:58;;;;;;;0.20;0.20;;;;;;;-0.70;100.00;96961.69;4961822;28;20046;-73
2022/12/19 10:58:44;;;;;;;0.20;0.20;;;;;;;-0.64;100.00;96965.44;4951089;28;20058;-72
2022/12/19 11:01:37;;;;;;;0.10;0.10;;;;;;;-0.56;100.00;96955.72;4965522;28;20332;-73
2022/12/19 11:04:33;;;;;;;0.20;0.20;;;;;;;-0.64;100.00;96957.56;4965111;28;20046;-72
2022/12/19 11:07:20;;;;;;;0.20;0.20;;;;;;;-0.57;100.00;96945.38;4938594;28;20374;-72
2022/12/19 11:10:41;;;;;;;0.20;0.20;;;;;;;-0.50;100.00;96930.59;4964248;28;20148;-71
2022/12/19 11:13:33;;;;;;;0.20;0.20;;;;;;;-0.44;100.00;96929.91;4966304;28;20053;-71
2022/12/19 11:16:33;;;;;;;0.20;0.20;;;;;;;-0.32;100.00;96933.00;4965473;28;20550;-72
2022/12/19 11:19:26;;;;;;;0.20;0.20;;;;;;;-0.38;100.00;96931.88;4965232;28;20932;-73
2022/12/19 11:22:30;;;;;;;0.20;0.20;;;;;;;-0.30;100.00;96918.72;4964022;28;20450;-72
2022/12/19 11:25:20;;;;;;;0.10;0.10;;;;;;;-0.24;100.00;96916.38;4964644;28;20141;-70
2022/12/19 11:28:39;;;;;;;0.20;0.20;;;;;;;-0.25;100.00;96910.28;4966275;28;20818;-71
2022/12/19 11:31:28;;;;;;;0.20;0.20;;;;;;;-0.26;100.00;96915.72;4612310;28;10000820;-73
2022/12/19 11:34:22;;;;;;;0.20;0.20;;;;;;;-0.20;100.00;96918.50;4963707;28;20269;-70
2022/12/19 11:37:26;;;;;;;0.10;0.10;;;;;;;-0.28;100.00;96916.72;4963610;28;20058;-73
2022/12/19 11:40:32;;;;;;;0.20;0.20;;;;;;;-0.16;100.00;96918.97;4964049;28;20050;-72
2022/12/19 11:43:33;;;;;;;0.10;0.10;;;;;;;-0.26;100.00;96913.09;4948094;28;20237;-73
2022/12/19 11:46:32;;;;;;;0.10;0.10;;;;;;;-0.22;100.00;96911.78;4963445;28;20054;-72
2022/12/19 11:49:39;;;;;;;0.10;0.10;;;;;;;-0.21;100.00;96916.88;4947279;28;20038;-73
2022/12/19 11:52:49;;;;;;;0.17;0.17;;;;;;;-0.21;100.00;96910.78;4963513;28;20553;-73
2022/12/19 11:55:42;;;;;;;0.20;0.20;;;;;;;-0.24;100.00;96911.94;4959914;28;20050;-73
2022/12/19 11:58:28;;;;;;;0.10;0.10;;;;;;;-0.17;100.00;96902.38;4964231;28;20590;-71
2022/12/19 12:01:38;;;;;;;0.10;0.10;;;;;;;-0.17;100.00;96915.53;4963320;28;20046;-72
2022/12/19 12:04:53;;;;;;;0.10;0.10;;;;;;;-0.19;100.00;96909.63;4963955;28;20046;-72
2022/12/19 12:07:39;;;;;;;0.20;0.20;;;;;;;-0.16;100.00;96917.16;4934754;28;20046;-74
2022/12/19 12:10:29;;;;;;;0.20;0.20;;;;;;;-0.09;100.00;96912.03;4962433;28;20140;-73
2022/12/19 12:13:25;;;;;;;0.10;0.10;;;;;;;-0.03;100.00;96909.56;4963602;28;20564;-71
2022/12/19 12:16:14;;;;;;;0.10;0.10;;;;;;;-0.01;100.00;96901.50;4962332;28;20172;-73
2022/12/19 12:19:18;;;;;;;0.20;0.20;;;;;;;-0.02;100.00;96899.84;4960597;28;20582;-73
2022/12/19 12:22:16;;;;;;;0.20;0.20;;;;;;;-0.05;100.00;96895.75;4961634;28;20699;-70
2022/12/19 12:25:33;;;;;;;0.20;0.20;;;;;;;0.02;100.00;96914.31;4963237;28;20383;-71
2022/12/19 12:28:25;;;;;;;0.10;0.10;;;;;;;-0.03;100.00;96906.09;4961843;28;20610;-72
2022/12/19 12:31:39;;;;;;;0.20;0.20;;;;;;;-0.06;100.00;96903.81;4961095;28;20165;-71
2022/12/19 12:34:33;;;;;;;0.10;0.10;;;;;;;-0.03;100.00;96908.75;4934347;28;20042;-74
2022/12/19 12:37:34;;;;;;;0.20;0.20;;;;;;;-0.15;100.00;96908.31;4962670;28;20535;-71
2022/12/19 12:40:51;;;;;;;0.20;0.20;;;;;;;-0.15;100.00;96899.59;4964957;28;20050;-73
2022/12/19 12:43:49;;;;;;;0.20;0.20;;;;;;;-0.18;100.00;96899.91;4963012;28;20831;-70
2022/12/19 12:46:50;;;;;;;0.20;0.20;;;;;;;-0.19;100.00;96914.06;4963109;28;20045;-71
2022/12/19 12:49:50;;;;;;;0.20;0.20;;;;;;;-0.21;100.00;96914.25;4961931;28;20054;-72
2022/12/19 12:52:42;;;;;;;0.20;0.20;;;;;;;-0.11;100.00;96911.41;4960498;28;20050;-73
2022/12/19 12:55:39;;;;;;;0.10;0.10;;;;;;;-0.10;100.00;96907.78;4947538;28;20821;-73
2022/12/19 12:58:48;;;;;;;0.20;0.20;;;;;;;-0.06;100.00;96915.19;4963974;28;20062;-74
2022/12/19 13:01:38;;;;;;;0.10;0.10;;;;;;;-0.04;100.00;96910.56;4952295;28;20057;-72
2022/12/19 13:04:29;;;;;;;0.20;0.20;;;;;;;0.06;100.00;96920.88;4965681;28;20050;-73
2022/12/19 13:07:26;;;;;;;0.10;0.10;;;;;;;0.08;100.00;96915.44;4935715;28;20382;-72
2022/12/19 13:10:11;;;;;;;0.20;0.20;;;;;;;0.07;100.00;96919.88;4959279;28;20232;-73
2022/12/19 13:13:06;;;;;;;0.20;0.20;;;;;;;0.12;100.00;96917.56;4953735;28;20109;-74
2022/12/19 13:15:52;;;;;;;0.17;0.17;;;;;;;0.18;100.00;96916.06;4958301;28;20048;-74
2022/12/19 13:18:38;;;;;;;0.20;0.20;;;;;;;0.19;100.00;96913.25;4960975;28;20070;-74
2022/12/19 13:22:03;;;;;;;0.20;0.20;;;;;;;0.28;100.00;96909.56;4959991;28;20522;-72
2022/12/19 13:24:54;;;;;;;0.15;0.15;;;;;;;0.38;100.00;96904.06;4958660;28;20046;-73
2022/12/19 13:27:47;;;;;;;0.20;0.20;;;;;;;0.38;100.00;96903.25;4960599;28;20515;-74
2022/12/19 13:30:33;;;;;;;;;;;;;;;0.48;100.00;96898.63;4960149;28;20039;-74
2022/12/19 13:33:19;;;;;;;0.15;0.15;;;;;;;0.43;100.00;96900.94;4961341;28;19921;-73
2022/12/19 13:36:45;;;;;;;0.20;0.20;;;;;;;0.52;100.00;96899.88;4958359;28;20161;-70
2022/12/19 13:39:33;;;;;;;0.20;0.20;;;;;;;0.51;100.00;96901.69;4961626;28;20034;-73
2022/12/19 13:45:33;;;;;;;0.20;0.20;;;;;;;0.63;100.00;96911.84;4960037;28;20534;-71
2022/12/19 13:48:33;;;;;;;0.20;0.20;;;;;;;0.67;100.00;96911.31;4962126;28;20662;-73
2022/12/19 13:51:19;;;;;;;0.20;0.20;;;;;;;0.68;100.00;96902.41;4960629;28;20547;-72
2022/12/19 13:54:21;;;;;;;0.10;0.10;;;;;;;0.66;100.00;96901.78;4960018;28;20042;-70